Main page
METAR-TAF:

METAR-TAF

Airports :

Kasane Airport

Kasane, Botswana

latitude: 17-49S, longitude: 025-09E, elevation: 968 m

Current weather observation

The report was made 6 hours and 44 minutes ago, at 18:00 UTC
Wind 5 kt from the East/Southeast
Temperature 18°C
Humidity 45%
Pressure 1025 hPa
Visibility 10 km or more
no clouds below 1500 m and no cumulonimbus

METAR: FBKE 231800Z 12005KT CAVOK 18/06 Q1025

Time: 02:44 (00:44 UTC)

Forecast

The report was made 12 hours and 44 minutes ago, at 12:00 UTC
Forecast valid from 23 at 15 UTC to 23 at 24 UTC
Wind 10 kt from the East
Visibility 10 km or more
no clouds below 1500 m and no cumulonimbus

TAF: FBKE 231200Z 2315/2324 09010KT CAVOK

Weather observations and forecasts of more than 4000 airports (METAR and TAF reports).

The available stations are represented by yellow and red dots on the map.

Hover mouse over dot to see the name of the station.

Then click to see weather observations and forecasts.

To change the map : click on the green buttons with a black cross to zoom in, on the green button with a dash to zoom out, or on the green arrows for adjacent maps.


METAR-TAF: